sensor_id;sensor_type;location;lat;lon;timestamp;pressure;altitude;pressure_sealevel;temperature;humidity
44996;BME280;30729;49.486;10.792;2022-09-09T00:00:40;97355.88;;;15.54;100.00
44996;BME280;30729;49.486;10.792;2022-09-09T00:03:26;97358.41;;;15.58;100.00
44996;BME280;30729;49.486;10.792;2022-09-09T00:05:58;97342.84;;;15.51;100.00
44996;BME280;30729;49.486;10.792;2022-09-09T00:08:35;97343.38;;;15.61;100.00
44996;BME280;30729;49.486;10.792;2022-09-09T00:11:04;97333.97;;;15.64;100.00
44996;BME280;30729;49.486;10.792;2022-09-09T00:13:46;97355.59;;;15.41;100.00
44996;BME280;30729;49.486;10.792;2022-09-09T00:16:22;97341.81;;;15.43;100.00
44996;BME280;30729;49.486;10.792;2022-09-09T00:19:22;97339.00;;;15.38;100.00
44996;BME280;30729;49.486;10.792;2022-09-09T00:22:16;97346.13;;;15.39;100.00
44996;BME280;30729;49.486;10.792;2022-09-09T00:24:45;97345.38;;;15.38;100.00
44996;BME280;30729;49.486;10.792;2022-09-09T00:29:56;97333.38;;;15.38;100.00
44996;BME280;30729;49.486;10.792;2022-09-09T00:32:28;97340.00;;;15.29;100.00
44996;BME280;30729;49.486;10.792;2022-09-09T00:34:58;97328.44;;;15.04;100.00
44996;BME280;30729;49.486;10.792;2022-09-09T00:37:26;97329.50;;;15.18;100.00
44996;BME280;30729;49.486;10.792;2022-09-09T00:39:54;97326.72;;;15.24;100.00
44996;BME280;30729;49.486;10.792;2022-09-09T00:42:41;97330.25;;;15.19;100.00
44996;BME280;30729;49.486;10.792;2022-09-09T00:47:52;97339.72;;;15.27;100.00
44996;BME280;30729;49.486;10.792;2022-09-09T00:50:44;97328.25;;;15.30;100.00
44996;BME280;30729;49.486;10.792;2022-09-09T00:53:28;97337.97;;;15.35;100.00
44996;BME280;30729;49.486;10.792;2022-09-09T00:58:27;97322.34;;;15.11;100.00
44996;BME280;30729;49.486;10.792;2022-09-09T01:01:13;97329.47;;;15.13;100.00
44996;BME280;30729;49.486;10.792;2022-09-09T01:06:18;97324.16;;;15.20;100.00
44996;BME280;30729;49.486;10.792;2022-09-09T01:09:07;97327.22;;;15.22;100.00
44996;BME280;30729;49.486;10.792;2022-09-09T01:14:41;97330.47;;;15.09;100.00
44996;BME280;30729;49.486;10.792;2022-09-09T01:17:20;97336.84;;;15.10;100.00
44996;BME280;30729;49.486;10.792;2022-09-09T01:19:57;97344.50;;;15.04;100.00
44996;BME280;30729;49.486;10.792;2022-09-09T01:22:38;97344.78;;;15.17;100.00
44996;BME280;30729;49.486;10.792;2022-09-09T01:28:10;97333.47;;;14.89;100.00
44996;BME280;30729;49.486;10.792;2022-09-09T01:30:39;97335.53;;;14.94;100.00
44996;BME280;30729;49.486;10.792;2022-09-09T01:33:13;97341.91;;;15.00;100.00
44996;BME280;30729;49.486;10.792;2022-09-09T01:38:07;97338.59;;;14.96;100.00
44996;BME280;30729;49.486;10.792;2022-09-09T01:40:33;97323.81;;;14.96;100.00
44996;BME280;30729;49.486;10.792;2022-09-09T01:42:58;97330.94;;;14.91;100.00
44996;BME280;30729;49.486;10.792;2022-09-09T01:45:24;97325.06;;;14.89;100.00
44996;BME280;30729;49.486;10.792;2022-09-09T01:47:52;97341.16;;;14.94;100.00
44996;BME280;30729;49.486;10.792;2022-09-09T01:50:17;97331.97;;;14.94;100.00
44996;BME280;30729;49.486;10.792;2022-09-09T01:52:47;97330.22;;;15.02;100.00
44996;BME280;30729;49.486;10.792;2022-09-09T01:55:15;97335.56;;;15.05;100.00
44996;BME280;30729;49.486;10.792;2022-09-09T02:00:21;97329.94;;;15.05;100.00
44996;BME280;30729;49.486;10.792;2022-09-09T02:08:03;97321.53;;;15.00;100.00
44996;BME280;30729;49.486;10.792;2022-09-09T02:10:36;97324.09;;;15.03;100.00
44996;BME280;30729;49.486;10.792;2022-09-09T02:13:09;97322.78;;;14.93;100.00
44996;BME280;30729;49.486;10.792;2022-09-09T02:18:19;97318.78;;;14.57;100.00
44996;BME280;30729;49.486;10.792;2022-09-09T02:20:47;97318.56;;;14.66;100.00
44996;BME280;30729;49.486;10.792;2022-09-09T02:23:14;97322.88;;;14.61;100.00
44996;BME280;30729;49.486;10.792;2022-09-09T02:25:41;97322.44;;;14.74;100.00
44996;BME280;30729;49.486;10.792;2022-09-09T02:28:08;97322.41;;;14.69;100.00
44996;BME280;30729;49.486;10.792;2022-09-09T02:30:35;97332.88;;;14.74;100.00
44996;BME280;30729;49.486;10.792;2022-09-09T02:33:04;97335.38;;;14.66;100.00
44996;BME280;30729;49.486;10.792;2022-09-09T02:35:32;97336.88;;;14.61;100.00
44996;BME280;30729;49.486;10.792;2022-09-09T02:38:04;97334.38;;;14.64;100.00
44996;BME280;30729;49.486;10.792;2022-09-09T02:40:31;97333.47;;;14.46;100.00
44996;BME280;30729;49.486;10.792;2022-09-09T02:42:57;97328.22;;;14.59;100.00
44996;BME280;30729;49.486;10.792;2022-09-09T02:45:31;97325.44;;;14.65;100.00
44996;BME280;30729;49.486;10.792;2022-09-09T02:51:14;97327.03;;;14.72;100.00
44996;BME280;30729;49.486;10.792;2022-09-09T02:56:32;97339.00;;;14.35;100.00
44996;BME280;30729;49.486;10.792;2022-09-09T02:58:58;97329.47;;;14.53;100.00
44996;BME280;30729;49.486;10.792;2022-09-09T03:01:24;97332.78;;;14.57;100.00
44996;BME280;30729;49.486;10.792;2022-09-09T03:03:50;97330.25;;;14.53;100.00
44996;BME280;30729;49.486;10.792;2022-09-09T03:06:16;97325.94;;;14.58;100.00
44996;BME280;30729;49.486;10.792;2022-09-09T03:08:41;97323.59;;;14.51;100.00
44996;BME280;30729;49.486;10.792;2022-09-09T03:11:07;97324.16;;;14.60;100.00
44996;BME280;30729;49.486;10.792;2022-09-09T03:13:34;97321.63;;;14.63;100.00
44996;BME280;30729;49.486;10.792;2022-09-09T03:15:59;97326.69;;;14.58;100.00
44996;BME280;30729;49.486;10.792;2022-09-09T03:18:25;97318.56;;;14.60;100.00
44996;BME280;30729;49.486;10.792;2022-09-09T03:20:50;97314.25;;;14.65;100.00
44996;BME280;30729;49.486;10.792;2022-09-09T03:23:16;97319.91;;;14.71;100.00
44996;BME280;30729;49.486;10.792;2022-09-09T03:25:48;97320.41;;;14.75;100.00
44996;BME280;30729;49.486;10.792;2022-09-09T03:28:14;97326.28;;;14.77;100.00
44996;BME280;30729;49.486;10.792;2022-09-09T03:30:40;97322.19;;;14.78;100.00
44996;BME280;30729;49.486;10.792;2022-09-09T03:33:05;97322.19;;;14.78;100.00
44996;BME280;30729;49.486;10.792;2022-09-09T03:35:31;97315.53;;;14.70;100.00
44996;BME280;30729;49.486;10.792;2022-09-09T03:37:57;97320.94;;;14.79;100.00
44996;BME280;30729;49.486;10.792;2022-09-09T03:40:22;97311.97;;;14.75;100.00
44996;BME280;30729;49.486;10.792;2022-09-09T03:42:48;97320.59;;;14.66;100.00
44996;BME280;30729;49.486;10.792;2022-09-09T03:45:14;97324.25;;;14.83;100.00
44996;BME280;30729;49.486;10.792;2022-09-09T03:47:39;97315.84;;;14.77;100.00
44996;BME280;30729;49.486;10.792;2022-09-09T03:50:08;97315.53;;;14.70;100.00
44996;BME280;30729;49.486;10.792;2022-09-09T03:52:37;97313.44;;;14.53;100.00
44996;BME280;30729;49.486;10.792;2022-09-09T03:55:03;97303.31;;;14.30;100.00
44996;BME280;30729;49.486;10.792;2022-09-09T03:57:29;97304.00;;;14.14;100.00
44996;BME280;30729;49.486;10.792;2022-09-09T03:59:55;97312.75;;;14.27;100.00
44996;BME280;30729;49.486;10.792;2022-09-09T04:02:20;97311.53;;;14.39;100.00
44996;BME280;30729;49.486;10.792;2022-09-09T04:04:46;97311.34;;;14.48;100.00
44996;BME280;30729;49.486;10.792;2022-09-09T04:07:11;97307.84;;;14.53;100.00
44996;BME280;30729;49.486;10.792;2022-09-09T04:09:37;97306.13;;;14.67;100.00
44996;BME280;30729;49.486;10.792;2022-09-09T04:12:03;97310.66;;;14.59;100.00
44996;BME280;30729;49.486;10.792;2022-09-09T04:14:29;97309.41;;;14.66;100.00
44996;BME280;30729;49.486;10.792;2022-09-09T04:16:55;97303.53;;;14.58;100.00
44996;BME280;30729;49.486;10.792;2022-09-09T04:19:23;97304.28;;;14.58;100.00
44996;BME280;30729;49.486;10.792;2022-09-09T04:21:48;97300.97;;;14.60;100.00
44996;BME280;30729;49.486;10.792;2022-09-09T04:24:15;97303.25;;;14.61;100.00
44996;BME280;30729;49.486;10.792;2022-09-09T04:26:42;97319.56;;;14.57;100.00
44996;BME280;30729;49.486;10.792;2022-09-09T04:29:07;97310.50;;;14.36;100.00
44996;BME280;30729;49.486;10.792;2022-09-09T04:31:33;97300.53;;;14.30;100.00
44996;BME280;30729;49.486;10.792;2022-09-09T04:33:58;97310.28;;;14.40;100.00
44996;BME280;30729;49.486;10.792;2022-09-09T04:36:27;97309.00;;;14.41;100.00
44996;BME280;30729;49.486;10.792;2022-09-09T04:38:52;97315.88;;;14.40;100.00
44996;BME280;30729;49.486;10.792;2022-09-09T04:41:18;97307.19;;;14.38;100.00
44996;BME280;30729;49.486;10.792;2022-09-09T04:43:43;97309.66;;;14.25;100.00
44996;BME280;30729;49.486;10.792;2022-09-09T04:46:09;97316.25;;;14.22;100.00
44996;BME280;30729;49.486;10.792;2022-09-09T04:48:34;97315.06;;;14.34;100.00
44996;BME280;30729;49.486;10.792;2022-09-09T04:51:05;97321.19;;;14.38;100.00
44996;BME280;30729;49.486;10.792;2022-09-09T04:53:31;97328.31;;;14.39;100.00
44996;BME280;30729;49.486;10.792;2022-09-09T04:56:06;97331.09;;;13.96;100.00
44996;BME280;30729;49.486;10.792;2022-09-09T04:58:32;97341.41;;;13.79;100.00
44996;BME280;30729;49.486;10.792;2022-09-09T05:01:13;97347.44;;;13.72;100.00
44996;BME280;30729;49.486;10.792;2022-09-09T05:03:39;97353.25;;;13.68;100.00
44996;BME280;30729;49.486;10.792;2022-09-09T05:06:09;97356.97;;;13.59;100.00
44996;BME280;30729;49.486;10.792;2022-09-09T05:08:39;97353.91;;;13.57;100.00
44996;BME280;30729;49.486;10.792;2022-09-09T05:13:44;97354.91;;;13.54;100.00
44996;BME280;30729;49.486;10.792;2022-09-09T05:16:10;97354.91;;;13.54;100.00
44996;BME280;30729;49.486;10.792;2022-09-09T05:18:37;97352.84;;;13.81;100.00
44996;BME280;30729;49.486;10.792;2022-09-09T05:21:02;97361.44;;;14.03;100.00
44996;BME280;30729;49.486;10.792;2022-09-09T05:23:28;97365.34;;;14.17;100.00
44996;BME280;30729;49.486;10.792;2022-09-09T05:25:55;97361.25;;;14.13;100.00
44996;BME280;30729;49.486;10.792;2022-09-09T05:28:22;97360.63;;;14.29;100.00
44996;BME280;30729;49.486;10.792;2022-09-09T05:31:01;97364.19;;;14.29;100.00
44996;BME280;30729;49.486;10.792;2022-09-09T05:33:29;97364.22;;;14.35;100.00
44996;BME280;30729;49.486;10.792;2022-09-09T05:36:09;97355.38;;;14.48;100.00
44996;BME280;30729;49.486;10.792;2022-09-09T05:38:36;97352.25;;;14.34;100.00
44996;BME280;30729;49.486;10.792;2022-09-09T05:41:02;97350.75;;;14.39;100.00
44996;BME280;30729;49.486;10.792;2022-09-09T05:43:28;97351.38;;;14.49;100.00
44996;BME280;30729;49.486;10.792;2022-09-09T05:46:07;97357.31;;;14.30;100.00
44996;BME280;30729;49.486;10.792;2022-09-09T05:48:44;97357.09;;;14.02;100.00
44996;BME280;30729;49.486;10.792;2022-09-09T05:51:13;97358.44;;;14.13;100.00
44996;BME280;30729;49.486;10.792;2022-09-09T05:53:42;97350.38;;;14.20;100.00
44996;BME280;30729;49.486;10.792;2022-09-09T05:56:10;97359.53;;;14.21;100.00
44996;BME280;30729;49.486;10.792;2022-09-09T05:58:37;97359.44;;;14.41;100.00
44996;BME280;30729;49.486;10.792;2022-09-09T06:01:07;97359.06;;;14.59;100.00
44996;BME280;30729;49.486;10.792;2022-09-09T06:03:38;97362.53;;;14.92;100.00
44996;BME280;30729;49.486;10.792;2022-09-09T06:06:06;97357.81;;;15.20;100.00
44996;BME280;30729;49.486;10.792;2022-09-09T06:08:33;97360.69;;;15.48;100.00
44996;BME280;30729;49.486;10.792;2022-09-09T06:11:07;97361.25;;;15.64;100.00
44996;BME280;30729;49.486;10.792;2022-09-09T06:13:32;97360.22;;;15.55;100.00
44996;BME280;30729;49.486;10.792;2022-09-09T06:15:58;97359.69;;;15.57;100.00
44996;BME280;30729;49.486;10.792;2022-09-09T06:18:25;97359.22;;;15.58;100.00
44996;BME280;30729;49.486;10.792;2022-09-09T06:20:59;97361.72;;;15.45;100.00
44996;BME280;30729;49.486;10.792;2022-09-09T06:23:27;97356.13;;;15.45;100.00
44996;BME280;30729;49.486;10.792;2022-09-09T06:26:04;97354.56;;;15.44;100.00
44996;BME280;30729;49.486;10.792;2022-09-09T06:28:34;97362.03;;;15.64;100.00
44996;BME280;30729;49.486;10.792;2022-09-09T06:31:01;97353.13;;;15.88;100.00
44996;BME280;30729;49.486;10.792;2022-09-09T06:33:31;97354.66;;;15.89;100.00
44996;BME280;30729;49.486;10.792;2022-09-09T06:35:57;97354.41;;;15.87;100.00
44996;BME280;30729;49.486;10.792;2022-09-09T06:38:23;97349.81;;;16.01;100.00
44996;BME280;30729;49.486;10.792;2022-09-09T06:40:53;97352.13;;;15.91;100.00
44996;BME280;30729;49.486;10.792;2022-09-09T06:43:20;97354.16;;;15.85;100.00
44996;BME280;30729;49.486;10.792;2022-09-09T06:46:01;97362.56;;;16.02;100.00
44996;BME280;30729;49.486;10.792;2022-09-09T06:48:28;97363.34;;;16.14;100.00
44996;BME280;30729;49.486;10.792;2022-09-09T06:51:06;97369.72;;;16.31;100.00
44996;BME280;30729;49.486;10.792;2022-09-09T06:53:33;97366.16;;;16.36;100.00
44996;BME280;30729;49.486;10.792;2022-09-09T06:56:13;97373.06;;;16.46;100.00
44996;BME280;30729;49.486;10.792;2022-09-09T06:58:42;97365.59;;;16.66;100.00
44996;BME280;30729;49.486;10.792;2022-09-09T07:01:11;97369.69;;;16.59;100.00
44996;BME280;30729;49.486;10.792;2022-09-09T07:03:38;97370.19;;;16.63;100.00
44996;BME280;30729;49.486;10.792;2022-09-09T07:06:04;97369.63;;;16.93;100.00
44996;BME280;30729;49.486;10.792;2022-09-09T07:08:30;97381.03;;;17.23;100.00
44996;BME280;30729;49.486;10.792;2022-09-09T07:11:05;97378.72;;;17.27;100.00
44996;BME280;30729;49.486;10.792;2022-09-09T07:13:31;97373.69;;;17.55;100.00
44996;BME280;30729;49.486;10.792;2022-09-09T07:16:07;97387.59;;;17.48;100.00
44996;BME280;30729;49.486;10.792;2022-09-09T07:18:32;97376.97;;;17.71;100.00
44996;BME280;30729;49.486;10.792;2022-09-09T07:20:58;97378.19;;;17.81;100.00
44996;BME280;30729;49.486;10.792;2022-09-09T07:23:24;97370.97;;;17.91;100.00
44996;BME280;30729;49.486;10.792;2022-09-09T07:25:50;97379.59;;;18.04;100.00
44996;BME280;30729;49.486;10.792;2022-09-09T07:28:16;97375.75;;;18.02;100.00
44996;BME280;30729;49.486;10.792;2022-09-09T07:30:42;97378.78;;;18.04;100.00
44996;BME280;30729;49.486;10.792;2022-09-09T07:33:08;97383.81;;;18.17;100.00
44996;BME280;30729;49.486;10.792;2022-09-09T07:35:35;97384.59;;;18.47;100.00
44996;BME280;30729;49.486;10.792;2022-09-09T07:38:02;97384.69;;;18.36;100.00
44996;BME280;30729;49.486;10.792;2022-09-09T07:40:29;97380.59;;;18.37;100.00
44996;BME280;30729;49.486;10.792;2022-09-09T07:42:55;97374.25;;;18.55;100.00
44996;BME280;30729;49.486;10.792;2022-09-09T07:45:21;97380.91;;;18.58;100.00
44996;BME280;30729;49.486;10.792;2022-09-09T07:47:46;97379.47;;;18.76;100.00
44996;BME280;30729;49.486;10.792;2022-09-09T07:50:14;97379.81;;;18.67;100.00
44996;BME280;30729;49.486;10.792;2022-09-09T07:52:40;97379.69;;;18.53;100.00
44996;BME280;30729;49.486;10.792;2022-09-09T07:55:06;97381.19;;;18.54;100.00
44996;BME280;30729;49.486;10.792;2022-09-09T07:57:31;97383.44;;;18.61;100.00
44996;BME280;30729;49.486;10.792;2022-09-09T07:59:57;97376.88;;;19.02;100.00
44996;BME280;30729;49.486;10.792;2022-09-09T08:02:23;97377.25;;;19.36;100.00
44996;BME280;30729;49.486;10.792;2022-09-09T08:04:50;97381.00;;;19.01;100.00
44996;BME280;30729;49.486;10.792;2022-09-09T08:07:17;97382.34;;;19.19;100.00
44996;BME280;30729;49.486;10.792;2022-09-09T08:09:43;97379.22;;;19.42;100.00
44996;BME280;30729;49.486;10.792;2022-09-09T08:12:09;97380.06;;;19.36;100.00
44996;BME280;30729;49.486;10.792;2022-09-09T08:14:36;97382.72;;;19.48;100.00
44996;BME280;30729;49.486;10.792;2022-09-09T08:17:01;97373.66;;;19.55;100.00
44996;BME280;30729;49.486;10.792;2022-09-09T08:19:27;97375.72;;;19.54;100.00
44996;BME280;30729;49.486;10.792;2022-09-09T08:21:55;97382.66;;;19.53;100.00
44996;BME280;30729;49.486;10.792;2022-09-09T08:24:20;97386.50;;;19.75;100.00
44996;BME280;30729;49.486;10.792;2022-09-09T08:26:48;97383.31;;;19.65;100.00
44996;BME280;30729;49.486;10.792;2022-09-09T08:29:16;97377.50;;;19.76;100.00
44996;BME280;30729;49.486;10.792;2022-09-09T08:31:45;97389.31;;;19.56;100.00
44996;BME280;30729;49.486;10.792;2022-09-09T08:34:12;97397.88;;;19.88;100.00
44996;BME280;30729;49.486;10.792;2022-09-09T08:36:40;97394.59;;;20.03;100.00
44996;BME280;30729;49.486;10.792;2022-09-09T08:39:08;97400.09;;;20.27;100.00
44996;BME280;30729;49.486;10.792;2022-09-09T08:57:53;97404.63;;;20.17;100.00
44996;BME280;30729;49.486;10.792;2022-09-09T09:00:19;97397.94;;;20.66;100.00
44996;BME280;30729;49.486;10.792;2022-09-09T09:05:32;97398.00;;;20.47;100.00
44996;BME280;30729;49.486;10.792;2022-09-09T09:10:49;97408.97;;;19.86;100.00
44996;BME280;30729;49.486;10.792;2022-09-09T09:13:34;97401.59;;;19.58;100.00
44996;BME280;30729;49.486;10.792;2022-09-09T09:16:13;97392.66;;;19.92;100.00
44996;BME280;30729;49.486;10.792;2022-09-09T09:18:42;97390.09;;;20.72;100.00
44996;BME280;30729;49.486;10.792;2022-09-09T09:24:01;97386.22;;;21.15;100.00
44996;BME280;30729;49.486;10.792;2022-09-09T09:26:31;97387.97;;;21.04;100.00
44996;BME280;30729;49.486;10.792;2022-09-09T09:28:58;97388.84;;;21.12;100.00
44996;BME280;30729;49.486;10.792;2022-09-09T09:31:24;97382.06;;;21.69;100.00
44996;BME280;30729;49.486;10.792;2022-09-09T09:33:55;97388.72;;;21.92;98.98
44996;BME280;30729;49.486;10.792;2022-09-09T09:36:24;97378.75;;;21.78;99.95
44996;BME280;30729;49.486;10.792;2022-09-09T09:39:00;97374.50;;;22.05;96.43
44996;BME280;30729;49.486;10.792;2022-09-09T09:41:34;97387.41;;;22.48;97.41
44996;BME280;30729;49.486;10.792;2022-09-09T09:44:02;97364.38;;;23.01;89.37
44996;BME280;30729;49.486;10.792;2022-09-09T09:46:28;97362.44;;;23.32;84.95
44996;BME280;30729;49.486;10.792;2022-09-09T09:49:01;97365.75;;;22.87;86.68
44996;BME280;30729;49.486;10.792;2022-09-09T09:51:29;97368.50;;;22.09;87.91
44996;BME280;30729;49.486;10.792;2022-09-09T09:54:13;97370.09;;;21.49;94.07
44996;BME280;30729;49.486;10.792;2022-09-09T09:56:41;97358.88;;;21.30;100.00
44996;BME280;30729;49.486;10.792;2022-09-09T09:59:43;97363.22;;;21.45;100.00
44996;BME280;30729;49.486;10.792;2022-09-09T10:02:20;97357.84;;;21.68;98.51
44996;BME280;30729;49.486;10.792;2022-09-09T10:04:46;97360.63;;;22.15;100.00
44996;BME280;30729;49.486;10.792;2022-09-09T10:07:21;97356.81;;;22.54;88.32
44996;BME280;30729;49.486;10.792;2022-09-09T10:09:55;97361.72;;;23.03;87.73
44996;BME280;30729;49.486;10.792;2022-09-09T10:17:39;97356.13;;;22.61;92.03
44996;BME280;30729;49.486;10.792;2022-09-09T10:22:47;97356.34;;;22.22;93.69
44996;BME280;30729;49.486;10.792;2022-09-09T10:28:18;97355.13;;;21.62;94.45
44996;BME280;30729;49.486;10.792;2022-09-09T10:33:25;97346.81;;;21.03;93.91
44996;BME280;30729;49.486;10.792;2022-09-09T10:39:02;97345.69;;;22.56;89.03
44996;BME280;30729;49.486;10.792;2022-09-09T10:41:44;97334.53;;;23.16;82.40
44996;BME280;30729;49.486;10.792;2022-09-09T10:50:12;97326.56;;;22.85;77.18
44996;BME280;30729;49.486;10.792;2022-09-09T10:55:18;97332.50;;;23.68;73.33
44996;BME280;30729;49.486;10.792;2022-09-09T10:57:52;97331.84;;;24.21;76.72
44996;BME280;30729;49.486;10.792;2022-09-09T11:00:24;97328.91;;;23.75;65.54
44996;BME280;30729;49.486;10.792;2022-09-09T11:02:58;97330.28;;;23.01;67.68
44996;BME280;30729;49.486;10.792;2022-09-09T11:05:30;97333.13;;;22.52;67.64
44996;BME280;30729;49.486;10.792;2022-09-09T11:08:05;97332.91;;;22.99;69.76
44996;BME280;30729;49.486;10.792;2022-09-09T11:13:40;97335.56;;;22.97;70.35
44996;BME280;30729;49.486;10.792;2022-09-09T11:16:28;97330.88;;;23.07;69.90
44996;BME280;30729;49.486;10.792;2022-09-09T11:19:05;97319.25;;;23.78;54.06
44996;BME280;30729;49.486;10.792;2022-09-09T11:21:42;97325.75;;;24.01;53.87
44996;BME280;30729;49.486;10.792;2022-09-09T11:24:35;97330.28;;;23.97;56.52
44996;BME280;30729;49.486;10.792;2022-09-09T11:27:02;97324.94;;;23.78;55.53
44996;BME280;30729;49.486;10.792;2022-09-09T11:32:25;97322.94;;;23.50;65.36
44996;BME280;30729;49.486;10.792;2022-09-09T11:40:24;97312.59;;;23.24;58.80
44996;BME280;30729;49.486;10.792;2022-09-09T11:45:31;97313.97;;;24.05;56.38
44996;BME280;30729;49.486;10.792;2022-09-09T11:48:00;97307.94;;;24.24;54.29
44996;BME280;30729;49.486;10.792;2022-09-09T11:53:23;97300.53;;;24.74;49.67
44996;BME280;30729;49.486;10.792;2022-09-09T11:56:01;97310.06;;;24.46;55.65
44996;BME280;30729;49.486;10.792;2022-09-09T11:58:33;97310.66;;;23.11;61.26
44996;BME280;30729;49.486;10.792;2022-09-09T12:01:13;97313.94;;;23.82;59.91
44996;BME280;30729;49.486;10.792;2022-09-09T12:03:48;97316.56;;;23.65;59.31
44996;BME280;30729;49.486;10.792;2022-09-09T12:06:25;97313.25;;;23.53;60.76
44996;BME280;30729;49.486;10.792;2022-09-09T12:08:58;97302.19;;;23.85;62.21
44996;BME280;30729;49.486;10.792;2022-09-09T12:11:30;97305.06;;;23.93;61.68
44996;BME280;30729;49.486;10.792;2022-09-09T12:13:58;97310.34;;;23.30;62.12
44996;BME280;30729;49.486;10.792;2022-09-09T12:16:35;97298.38;;;23.24;64.30
44996;BME280;30729;49.486;10.792;2022-09-09T12:19:23;97304.91;;;22.46;66.66
44996;BME280;30729;49.486;10.792;2022-09-09T12:24:43;97308.72;;;22.07;70.20
44996;BME280;30729;49.486;10.792;2022-09-09T12:27:24;97317.63;;;21.90;76.58
44996;BME280;30729;49.486;10.792;2022-09-09T12:30:01;97349.09;;;20.92;81.30
44996;BME280;30729;49.486;10.792;2022-09-09T12:32:28;97359.84;;;20.21;98.98
44996;BME280;30729;49.486;10.792;2022-09-09T12:35:01;97344.34;;;19.39;100.00
44996;BME280;30729;49.486;10.792;2022-09-09T12:40:01;97365.88;;;18.50;100.00
44996;BME280;30729;49.486;10.792;2022-09-09T12:42:28;97386.09;;;17.88;100.00
44996;BME280;30729;49.486;10.792;2022-09-09T12:44:58;97411.47;;;17.24;100.00
44996;BME280;30729;49.486;10.792;2022-09-09T12:47:40;97430.97;;;17.05;100.00
44996;BME280;30729;49.486;10.792;2022-09-09T12:50:22;97431.78;;;16.89;100.00
44996;BME280;30729;49.486;10.792;2022-09-09T12:52:50;97428.97;;;16.89;100.00
44996;BME280;30729;49.486;10.792;2022-09-09T12:55:20;97410.75;;;17.18;100.00
44996;BME280;30729;49.486;10.792;2022-09-09T12:57:48;97390.38;;;18.00;100.00
44996;BME280;30729;49.486;10.792;2022-09-09T13:00:18;97385.75;;;18.33;100.00
44996;BME280;30729;49.486;10.792;2022-09-09T13:02:55;97389.75;;;18.43;100.00
44996;BME280;30729;49.486;10.792;2022-09-09T13:05:24;97368.50;;;19.16;100.00
44996;BME280;30729;49.486;10.792;2022-09-09T13:07:50;97367.16;;;19.41;100.00
44996;BME280;30729;49.486;10.792;2022-09-09T13:10:22;97351.53;;;20.10;100.00
44996;BME280;30729;49.486;10.792;2022-09-09T13:12:48;97357.88;;;20.48;100.00
44996;BME280;30729;49.486;10.792;2022-09-09T13:15:22;97353.09;;;21.23;100.00
44996;BME280;30729;49.486;10.792;2022-09-09T13:17:53;97341.13;;;21.30;100.00
44996;BME280;30729;49.486;10.792;2022-09-09T13:20:21;97341.28;;;21.58;100.00
44996;BME280;30729;49.486;10.792;2022-09-09T13:22:48;97330.09;;;21.53;100.00
44996;BME280;30729;49.486;10.792;2022-09-09T13:25:28;97335.94;;;21.07;100.00
44996;BME280;30729;49.486;10.792;2022-09-09T13:27:57;97340.28;;;20.95;100.00
44996;BME280;30729;49.486;10.792;2022-09-09T13:33:05;97328.28;;;21.02;100.00
44996;BME280;30729;49.486;10.792;2022-09-09T13:35:31;97325.88;;;21.06;100.00
44996;BME280;30729;49.486;10.792;2022-09-09T13:37:58;97318.72;;;20.92;100.00
44996;BME280;30729;49.486;10.792;2022-09-09T13:40:24;97318.59;;;20.98;100.00
44996;BME280;30729;49.486;10.792;2022-09-09T13:42:55;97313.28;;;20.81;100.00
44996;BME280;30729;49.486;10.792;2022-09-09T13:45:23;97306.53;;;20.57;100.00
44996;BME280;30729;49.486;10.792;2022-09-09T13:47:51;97303.81;;;20.52;100.00
44996;BME280;30729;49.486;10.792;2022-09-09T13:50:27;97300.19;;;20.38;100.00
44996;BME280;30729;49.486;10.792;2022-09-09T13:52:55;97298.84;;;20.26;100.00
44996;BME280;30729;49.486;10.792;2022-09-09T13:55:24;97289.44;;;20.04;100.00
44996;BME280;30729;49.486;10.792;2022-09-09T13:57:51;97280.09;;;20.09;100.00
44996;BME280;30729;49.486;10.792;2022-09-09T14:00:17;97280.03;;;20.15;100.00
44996;BME280;30729;49.486;10.792;2022-09-09T14:02:43;97288.88;;;20.38;100.00
44996;BME280;30729;49.486;10.792;2022-09-09T14:05:09;97283.81;;;20.18;100.00
44996;BME280;30729;49.486;10.792;2022-09-09T14:07:36;97280.41;;;20.06;100.00
44996;BME280;30729;49.486;10.792;2022-09-09T14:10:04;97282.38;;;19.98;100.00
44996;BME280;30729;49.486;10.792;2022-09-09T14:12:29;97287.81;;;20.54;100.00
44996;BME280;30729;49.486;10.792;2022-09-09T14:14:55;97287.66;;;21.13;100.00
44996;BME280;30729;49.486;10.792;2022-09-09T14:17:20;97293.88;;;20.85;100.00
44996;BME280;30729;49.486;10.792;2022-09-09T14:19:47;97289.38;;;20.36;100.00
44996;BME280;30729;49.486;10.792;2022-09-09T14:22:12;97293.59;;;20.17;100.00
44996;BME280;30729;49.486;10.792;2022-09-09T14:24:38;97308.38;;;20.09;100.00
44996;BME280;30729;49.486;10.792;2022-09-09T14:27:03;97309.22;;;20.04;100.00
44996;BME280;30729;49.486;10.792;2022-09-09T14:29:28;97308.69;;;20.06;100.00
44996;BME280;30729;49.486;10.792;2022-09-09T14:31:54;97315.97;;;20.01;100.00
44996;BME280;30729;49.486;10.792;2022-09-09T14:34:19;97311.66;;;20.13;100.00
44996;BME280;30729;49.486;10.792;2022-09-09T14:36:45;97305.44;;;20.74;100.00
44996;BME280;30729;49.486;10.792;2022-09-09T14:39:10;97314.31;;;21.31;100.00
44996;BME280;30729;49.486;10.792;2022-09-09T14:41:36;97303.22;;;21.20;100.00
44996;BME280;30729;49.486;10.792;2022-09-09T14:44:01;97301.19;;;20.80;100.00
44996;BME280;30729;49.486;10.792;2022-09-09T14:46:27;97304.69;;;20.60;100.00